createdAt,value
2022-08-27T04:07:11.055Z,19.82
2022-08-27T04:09:38.468Z,19.87
2022-08-27T04:12:05.909Z,19.95
2022-08-27T04:14:33.981Z,19.96
2022-08-27T04:17:01.760Z,19.97
2022-08-27T04:19:30.779Z,20.04
2022-08-27T04:22:06.194Z,20.09
2022-08-27T04:24:35.602Z,20.12
2022-08-27T04:27:03.067Z,20.07
2022-08-27T04:29:30.354Z,20.15
2022-08-27T04:31:57.802Z,20.13
2022-08-27T04:34:25.439Z,20.11
2022-08-27T04:36:56.848Z,20.09
2022-08-27T04:39:24.657Z,20.06
2022-08-27T04:41:53.087Z,20.12
2022-08-27T04:44:20.584Z,20.08
2022-08-27T04:46:48.428Z,20.02
2022-08-27T04:49:17.071Z,20.10
2022-08-27T04:51:44.143Z,20.06
2022-08-27T04:54:11.635Z,19.99
2022-08-27T04:56:39.348Z,20.03
2022-08-27T04:59:09.180Z,20.03
2022-08-27T05:01:37.964Z,20.04
2022-08-27T05:04:05.227Z,19.99
2022-08-27T05:06:32.767Z,20.01
2022-08-27T05:08:59.904Z,19.98
2022-08-27T05:11:32.345Z,19.98
2022-08-27T05:14:01.105Z,20.01
2022-08-27T05:16:28.260Z,20.03
2022-08-27T05:18:55.953Z,19.98
2022-08-27T05:21:32.167Z,19.94
2022-08-27T05:24:02.076Z,19.95
2022-08-27T05:26:30.366Z,19.93
2022-08-27T05:29:00.523Z,20.00
2022-08-27T05:31:28.634Z,19.89
2022-08-27T05:33:57.837Z,19.95
2022-08-27T05:36:28.484Z,19.95
2022-08-27T05:38:56.842Z,19.94
2022-08-27T05:41:34.330Z,19.99
2022-08-27T05:44:36.734Z,20.01
2022-08-27T05:46:56.630Z,20.06
2022-08-27T05:49:23.813Z,20.06
2022-08-27T05:51:50.857Z,20.13
2022-08-27T05:54:21.128Z,20.15
2022-08-27T05:56:51.943Z,20.18
2022-08-27T05:59:37.962Z,20.20
2022-08-27T06:02:06.465Z,20.22
2022-08-27T06:04:33.867Z,20.16
2022-08-27T06:07:01.015Z,20.13
2022-08-27T06:09:29.542Z,20.12
2022-08-27T06:12:01.724Z,20.32
2022-08-27T06:14:29.186Z,20.33
2022-08-27T06:16:56.265Z,20.40
2022-08-27T06:19:24.085Z,20.41
2022-08-27T06:22:00.943Z,20.44
2022-08-27T06:24:41.548Z,20.55
2022-08-27T06:27:09.836Z,20.59
2022-08-27T06:29:37.050Z,20.48
2022-08-27T06:32:04.383Z,20.47
2022-08-27T06:34:31.949Z,20.53
2022-08-27T06:36:59.954Z,20.52
2022-08-27T06:39:27.178Z,20.48
2022-08-27T06:41:55.353Z,20.51
2022-08-27T06:44:24.413Z,20.56
2022-08-27T06:46:52.324Z,20.61
2022-08-27T06:49:19.769Z,20.65
2022-08-27T06:51:47.996Z,20.65
2022-08-27T06:54:16.110Z,20.65
2022-08-27T06:56:45.032Z,20.62
2022-08-27T06:59:15.561Z,20.62
2022-08-27T07:01:47.567Z,20.61
2022-08-27T07:04:22.924Z,20.58
2022-08-27T07:07:01.032Z,20.60
2022-08-27T07:09:30.748Z,20.60
2022-08-27T07:11:58.956Z,20.47
2022-08-27T07:14:26.372Z,20.42
2022-08-27T07:16:53.889Z,20.44
2022-08-27T07:19:21.023Z,20.50
2022-08-27T07:21:49.520Z,20.49
2022-08-27T07:24:17.771Z,20.45
2022-08-27T07:26:45.053Z,20.53
2022-08-27T07:29:15.127Z,20.60
2022-08-27T07:31:43.811Z,20.57
2022-08-27T07:34:11.161Z,20.56
2022-08-27T07:36:38.833Z,20.46
2022-08-27T07:39:06.869Z,20.45
2022-08-27T07:41:57.880Z,20.39
2022-08-27T07:44:25.963Z,20.47
2022-08-27T07:46:56.384Z,20.47
2022-08-27T07:49:24.633Z,20.50
2022-08-27T07:51:52.303Z,20.50
2022-08-27T07:54:22.658Z,20.57
2022-08-27T07:56:55.705Z,20.60
2022-08-27T07:59:27.403Z,20.62
2022-08-27T08:01:55.900Z,20.67
2022-08-27T08:04:23.515Z,20.72
2022-08-27T08:06:51.557Z,20.70
2022-08-27T08:09:20.356Z,20.65
2022-08-27T08:11:48.120Z,20.57
2022-08-27T08:14:15.163Z,20.52
2022-08-27T08:16:42.337Z,20.40
2022-08-27T08:19:09.980Z,20.35
2022-08-27T08:21:38.665Z,20.28
2022-08-27T08:24:06.466Z,20.25
2022-08-27T08:26:34.201Z,20.19
2022-08-27T08:29:04.718Z,20.17
2022-08-27T08:31:32.344Z,20.21
2022-08-27T08:33:59.438Z,20.17
2022-08-27T08:36:27.033Z,20.09
2022-08-27T08:38:55.116Z,20.06
2022-08-27T08:41:32.854Z,19.98
2022-08-27T08:44:06.575Z,20.03
2022-08-27T08:46:46.672Z,19.99
2022-08-27T08:49:39.239Z,19.99
2022-08-27T08:52:26.468Z,19.99
2022-08-27T08:55:26.772Z,20.00
2022-08-27T08:58:11.729Z,19.92
2022-08-27T09:00:44.057Z,20.01
2022-08-27T09:03:16.404Z,20.01
2022-08-27T09:05:49.021Z,20.17
2022-08-27T09:08:36.577Z,20.27
2022-08-27T09:11:08.498Z,20.26
2022-08-27T09:13:42.600Z,20.19
2022-08-27T09:16:10.929Z,20.29
2022-08-27T09:18:40.096Z,20.29
2022-08-27T09:21:32.347Z,20.27
2022-08-27T09:24:13.985Z,20.32
2022-08-27T09:26:44.259Z,20.23
2022-08-27T09:29:21.020Z,20.32
2022-08-27T09:32:00.162Z,20.14
2022-08-27T09:34:41.395Z,20.27
2022-08-27T09:37:15.593Z,20.25
2022-08-27T09:40:13.504Z,20.24
2022-08-27T09:42:53.818Z,20.19
2022-08-27T09:45:24.837Z,20.23
2022-08-27T09:47:54.634Z,20.37
2022-08-27T09:50:31.866Z,20.44
2022-08-27T09:53:00.420Z,20.28
2022-08-27T09:55:35.491Z,20.41
2022-08-27T09:58:06.052Z,20.46
2022-08-27T10:00:39.749Z,20.53
2022-08-27T10:03:09.307Z,20.48
2022-08-27T10:05:38.775Z,20.55
2022-08-27T10:08:18.302Z,20.68
2022-08-27T10:11:04.745Z,20.66
2022-08-27T10:13:44.799Z,20.50
2022-08-27T10:16:40.924Z,20.45
2022-08-27T10:19:46.480Z,20.49
2022-08-27T10:22:26.436Z,20.38
2022-08-27T10:25:11.273Z,20.25
2022-08-27T10:28:13.730Z,20.15
2022-08-27T10:31:08.400Z,20.15
2022-08-27T10:34:04.115Z,20.10
2022-08-27T10:36:46.992Z,20.19
2022-08-27T10:39:48.369Z,20.19
2022-08-27T10:42:26.563Z,20.11
2022-08-27T10:45:12.707Z,20.21
2022-08-27T10:48:02.981Z,20.08
2022-08-27T10:50:37.073Z,20.04
2022-08-27T10:53:26.739Z,20.05
2022-08-27T10:56:08.940Z,20.12
2022-08-27T10:58:58.456Z,20.00
2022-08-27T11:01:55.601Z,20.04
2022-08-27T11:04:29.683Z,19.91
2022-08-27T11:07:05.829Z,19.90
2022-08-27T11:09:56.807Z,19.94
2022-08-27T11:12:37.146Z,19.84
2022-08-27T11:15:21.710Z,19.97
2022-08-27T11:17:57.073Z,19.97
2022-08-27T11:20:34.905Z,19.97
2022-08-27T11:23:19.081Z,19.96
2022-08-27T11:26:02.018Z,19.84
2022-08-27T11:28:43.691Z,19.78
2022-08-27T11:31:20.152Z,19.80
2022-08-27T11:34:11.118Z,19.80
2022-08-27T11:36:45.082Z,19.79
2022-08-27T11:39:17.958Z,19.80
2022-08-27T11:41:56.793Z,19.87
2022-08-27T11:44:27.035Z,19.83
2022-08-27T11:47:27.381Z,19.91
2022-08-27T11:50:01.787Z,19.79
2022-08-27T11:52:31.862Z,19.90
2022-08-27T11:55:20.425Z,19.84
2022-08-27T11:57:50.283Z,19.81
2022-08-27T12:00:26.898Z,19.94
2022-08-27T12:03:05.897Z,19.92
2022-08-27T12:05:35.181Z,19.97
2022-08-27T12:08:13.419Z,20.00
2022-08-27T12:11:03.570Z,20.07
2022-08-27T12:14:01.332Z,20.08
2022-08-27T12:16:43.569Z,20.19
2022-08-27T12:19:11.129Z,20.23
2022-08-27T12:22:29.411Z,20.24
2022-08-27T12:24:58.849Z,19.91
2022-08-27T12:27:32.701Z,19.86
2022-08-27T12:30:21.392Z,19.94
2022-08-27T12:32:53.550Z,19.91
2022-08-27T12:35:49.014Z,19.96
2022-08-27T12:38:44.405Z,19.98
2022-08-27T12:41:43.759Z,20.03
2022-08-27T12:44:14.763Z,19.98
2022-08-27T12:47:11.825Z,20.03
2022-08-27T12:49:57.621Z,20.18
2022-08-27T12:53:00.196Z,20.28
2022-08-27T12:55:40.359Z,20.56
2022-08-27T12:58:26.174Z,20.88
2022-08-27T13:01:21.395Z,21.23
2022-08-27T13:03:53.015Z,21.55
2022-08-27T13:06:27.243Z,22.02
2022-08-27T13:08:56.995Z,22.36
2022-08-27T13:11:30.759Z,22.65
2022-08-27T13:14:11.016Z,22.76
2022-08-27T13:16:42.997Z,23.01
2022-08-27T13:19:33.491Z,22.91
2022-08-27T13:22:02.078Z,22.65
2022-08-27T13:24:35.026Z,22.63
2022-08-27T13:27:05.566Z,22.38
2022-08-27T13:29:32.984Z,22.12
2022-08-27T13:32:00.897Z,21.90
2022-08-27T13:34:33.439Z,21.81
2022-08-27T13:37:06.311Z,21.78
2022-08-27T13:39:35.749Z,21.74
2022-08-27T13:42:05.897Z,21.68
2022-08-27T13:44:39.239Z,21.57
2022-08-27T13:47:08.626Z,21.56
2022-08-27T13:49:40.265Z,21.63
2022-08-27T13:52:31.257Z,21.65
2022-08-27T13:55:06.701Z,21.67
2022-08-27T13:57:42.504Z,21.66
2022-08-27T14:00:17.485Z,21.76
2022-08-27T14:02:55.815Z,21.56
2022-08-27T14:05:29.234Z,21.57
2022-08-27T14:08:21.090Z,21.82
2022-08-27T14:11:01.513Z,21.76
2022-08-27T14:13:31.832Z,21.94
2022-08-27T14:16:01.599Z,22.09
2022-08-27T14:18:58.022Z,22.51
2022-08-27T14:21:23.701Z,22.73
2022-08-27T14:23:52.398Z,23.03
2022-08-27T14:26:20.460Z,23.27
2022-08-27T14:28:47.699Z,23.23
2022-08-27T14:31:15.379Z,23.23
2022-08-27T14:33:42.794Z,23.18
2022-08-27T14:36:11.093Z,23.04
2022-08-27T14:38:42.115Z,23.09
2022-08-27T14:41:09.428Z,23.03
2022-08-27T14:43:38.562Z,23.27
2022-08-27T14:46:08.633Z,23.44
2022-08-27T14:48:36.909Z,23.87
2022-08-27T14:51:12.872Z,24.05
2022-08-27T14:53:40.457Z,24.46
2022-08-27T14:56:07.710Z,25.01
2022-08-27T14:58:34.857Z,25.69
2022-08-27T15:01:03.737Z,25.78
2022-08-27T15:03:32.069Z,25.62
2022-08-27T15:05:59.513Z,26.06
2022-08-27T15:08:29.373Z,26.45
2022-08-27T15:10:59.417Z,27.19
2022-08-27T15:13:26.715Z,27.44
2022-08-27T15:15:54.161Z,27.41
2022-08-27T15:18:21.508Z,27.63
2022-08-27T15:20:49.696Z,27.14
2022-08-27T15:23:17.046Z,26.51
2022-08-27T15:25:46.116Z,26.90
2022-08-27T15:28:13.416Z,26.58
2022-08-27T15:30:41.058Z,25.73
2022-08-27T15:33:08.254Z,25.70
2022-08-27T15:35:35.384Z,25.70
2022-08-27T15:38:02.866Z,25.63
2022-08-27T15:40:34.805Z,25.65
2022-08-27T15:43:06.113Z,25.66
2022-08-27T15:45:33.640Z,25.16
2022-08-27T15:48:01.334Z,25.43
2022-08-27T15:50:31.221Z,25.13
2022-08-27T15:53:05.904Z,25.18
2022-08-27T15:55:36.874Z,25.07
2022-08-27T15:58:04.703Z,25.02
2022-08-27T16:00:34.612Z,25.09
2022-08-27T16:03:05.188Z,25.02
2022-08-27T16:05:35.814Z,25.25
2022-08-27T16:08:04.031Z,25.36
2022-08-27T16:10:31.638Z,25.46
2022-08-27T16:12:58.678Z,25.46
2022-08-27T16:15:25.879Z,25.36
2022-08-27T16:17:57.088Z,25.22
2022-08-27T16:20:25.833Z,25.14
2022-08-27T16:22:53.568Z,25.10
2022-08-27T16:25:23.247Z,25.09
2022-08-27T16:27:51.177Z,25.03
2022-08-27T16:30:19.159Z,24.92
2022-08-27T16:32:48.782Z,24.70
2022-08-27T16:35:16.584Z,24.65
2022-08-27T16:37:44.761Z,24.78
2022-08-27T16:40:13.851Z,24.86
2022-08-27T16:42:45.234Z,24.83
2022-08-27T16:45:14.484Z,24.66
2022-08-27T16:48:00.337Z,24.80
2022-08-27T16:50:34.202Z,24.87
2022-08-27T16:53:09.228Z,24.95
2022-08-27T16:55:40.199Z,24.90
2022-08-27T16:58:19.476Z,24.85
2022-08-27T17:00:50.820Z,24.97
2022-08-27T17:03:19.836Z,24.88
2022-08-27T17:05:46.924Z,24.71
2022-08-27T17:08:20.079Z,24.39
2022-08-27T17:10:49.257Z,24.32
2022-08-27T17:13:22.602Z,24.13
2022-08-27T17:15:56.909Z,23.74
2022-08-27T17:18:30.807Z,23.81
2022-08-27T17:20:59.484Z,23.56
2022-08-27T17:23:34.376Z,23.63
2022-08-27T17:26:04.558Z,23.44
2022-08-27T17:28:31.696Z,23.41
2022-08-27T17:31:01.219Z,23.49
2022-08-27T17:33:32.150Z,23.29
2022-08-27T17:35:59.859Z,23.24
2022-08-27T17:38:27.060Z,23.11
2022-08-27T17:40:55.628Z,22.99
2022-08-27T17:43:22.826Z,22.90
2022-08-27T17:45:50.196Z,22.82
2022-08-27T17:48:19.155Z,22.70
2022-08-27T17:50:47.712Z,22.62
2022-08-27T17:53:15.047Z,22.45
2022-08-27T17:55:43.003Z,22.36
2022-08-27T17:58:10.142Z,22.25
2022-08-27T18:00:39.094Z,22.16
2022-08-27T18:03:16.639Z,22.03
2022-08-27T18:05:45.382Z,21.92
2022-08-27T18:08:13.870Z,21.86
2022-08-27T18:10:43.302Z,21.78
2022-08-27T18:13:11.754Z,21.72
2022-08-27T18:15:41.213Z,21.68
2022-08-27T18:18:10.109Z,21.57
2022-08-27T18:20:42.567Z,21.56
2022-08-27T18:23:16.655Z,21.47
2022-08-27T18:25:45.494Z,21.35
2022-08-27T18:28:13.719Z,21.33
2022-08-27T18:30:43.921Z,21.21
2022-08-27T18:33:11.610Z,21.10
2022-08-27T18:35:39.903Z,21.07
2022-08-27T18:38:07.556Z,21.03
2022-08-27T18:40:45.897Z,20.98
2022-08-27T18:43:14.527Z,20.91
2022-08-27T18:45:42.319Z,20.76
2022-08-27T18:48:19.773Z,20.69
2022-08-27T18:50:55.968Z,20.72
2022-08-27T18:53:24.544Z,20.64
2022-08-27T18:55:52.170Z,20.65
2022-08-27T18:58:20.015Z,20.62
2022-08-27T19:00:50.564Z,20.59
2022-08-27T19:03:27.173Z,20.54
2022-08-27T19:05:56.124Z,20.44
2022-08-27T19:08:27.975Z,20.39
2022-08-27T19:10:55.982Z,20.37
2022-08-27T19:13:23.334Z,20.29
2022-08-27T19:15:56.359Z,20.23
2022-08-27T19:18:26.696Z,20.20
2022-08-27T19:20:54.240Z,20.12
2022-08-27T19:23:22.688Z,20.08
2022-08-27T19:25:52.157Z,20.07
2022-08-27T19:28:24.700Z,20.03
2022-08-27T19:30:52.047Z,19.96
2022-08-27T19:33:19.628Z,19.85
2022-08-27T19:35:46.736Z,19.80
2022-08-27T19:38:14.542Z,19.82
2022-08-27T19:40:41.791Z,19.80
2022-08-27T19:43:09.581Z,19.83
2022-08-27T19:45:40.427Z,19.74
2022-08-27T19:48:08.752Z,19.69
2022-08-27T19:50:35.953Z,19.62
2022-08-27T19:53:03.325Z,19.60
2022-08-27T19:55:30.371Z,19.59
2022-08-27T19:57:57.463Z,19.55
2022-08-27T20:00:27.606Z,19.48
2022-08-27T20:02:55.547Z,19.41
2022-08-27T20:05:23.452Z,19.36
2022-08-27T20:07:52.977Z,19.37
2022-08-27T20:10:23.196Z,19.29
2022-08-27T20:12:59.251Z,19.31
2022-08-27T20:15:27.128Z,19.24
2022-08-27T20:17:54.548Z,19.21
2022-08-27T20:20:23.888Z,19.18
2022-08-27T20:22:52.302Z,19.15
2022-08-27T20:25:20.304Z,19.13
2022-08-27T20:27:47.788Z,19.09
2022-08-27T20:30:17.244Z,18.98
2022-08-27T20:32:47.384Z,18.92
2022-08-27T20:35:15.692Z,18.93
2022-08-27T20:37:43.053Z,18.84
2022-08-27T20:40:15.468Z,18.73
2022-08-27T20:42:42.638Z,18.65
2022-08-27T20:45:12.331Z,18.59
2022-08-27T20:47:41.961Z,18.64
2022-08-27T20:50:09.847Z,18.60
2022-08-27T20:52:40.231Z,18.61
2022-08-27T20:55:09.253Z,18.58
2022-08-27T20:57:36.466Z,18.47
2022-08-27T21:00:21.356Z,18.42
2022-08-27T21:02:48.423Z,18.39
2022-08-27T21:05:17.795Z,18.32
2022-08-27T21:07:48.537Z,18.33
2022-08-27T21:10:16.050Z,18.26
2022-08-27T21:12:44.364Z,18.17
2022-08-27T21:15:12.811Z,18.15
2022-08-27T21:17:40.090Z,18.16
2022-08-27T21:20:11.321Z,18.09
2022-08-27T21:22:40.185Z,18.04
2022-08-27T21:25:08.996Z,18.04
2022-08-27T21:27:36.762Z,17.98
2022-08-27T21:30:04.769Z,17.89
2022-08-27T21:32:32.365Z,17.83
2022-08-27T21:34:59.782Z,17.80
2022-08-27T21:37:27.166Z,17.75
2022-08-27T21:39:54.442Z,17.72
2022-08-27T21:42:21.820Z,17.70
2022-08-27T21:44:49.401Z,17.67
2022-08-27T21:47:16.888Z,17.65
2022-08-27T21:49:44.195Z,17.60
2022-08-27T21:52:11.360Z,17.57
2022-08-27T21:54:41.503Z,17.56
2022-08-27T21:57:10.388Z,17.48
2022-08-27T21:59:45.003Z,17.46
2022-08-27T22:02:38.138Z,17.44
2022-08-27T22:05:01.794Z,17.46
2022-08-27T22:07:28.941Z,17.38
2022-08-27T22:09:56.125Z,17.39
2022-08-27T22:12:24.498Z,17.34
2022-08-27T22:14:52.044Z,17.26
2022-08-27T22:17:19.096Z,17.23
2022-08-27T22:19:46.449Z,17.22
2022-08-27T22:22:13.539Z,17.22
2022-08-27T22:24:40.775Z,17.14
2022-08-27T22:27:08.302Z,17.14
2022-08-27T22:29:35.448Z,17.13
2022-08-27T22:32:02.811Z,17.03
2022-08-27T22:34:30.061Z,17.05
2022-08-27T22:36:57.113Z,16.99
2022-08-27T22:39:24.546Z,16.96
2022-08-27T22:41:52.017Z,16.95
2022-08-27T22:44:19.576Z,16.93
2022-08-27T22:46:46.926Z,16.87
2022-08-27T22:49:14.415Z,16.86
2022-08-27T22:51:42.052Z,16.81
2022-08-27T22:54:09.750Z,16.80
2022-08-27T22:56:37.376Z,16.76
2022-08-27T22:59:07.421Z,16.73
2022-08-27T23:01:36.430Z,16.71
2022-08-27T23:04:06.340Z,16.72
2022-08-27T23:06:34.168Z,16.70
2022-08-27T23:09:01.845Z,16.59
2022-08-27T23:11:32.158Z,16.60
2022-08-27T23:13:59.967Z,16.61
2022-08-27T23:16:27.688Z,16.55
2022-08-27T23:18:54.783Z,16.55
2022-08-27T23:21:21.799Z,16.50
2022-08-27T23:23:49.281Z,16.40
2022-08-27T23:26:35.042Z,16.41
2022-08-27T23:29:02.493Z,16.40
2022-08-27T23:31:29.574Z,16.31
2022-08-27T23:33:57.804Z,16.36
2022-08-27T23:36:25.270Z,16.35
2022-08-27T23:38:53.268Z,16.36
2022-08-27T23:41:20.627Z,16.27
2022-08-27T23:43:48.276Z,16.19
2022-08-27T23:46:15.591Z,16.19
2022-08-27T23:48:43.021Z,16.19
2022-08-27T23:51:10.338Z,16.22
2022-08-27T23:53:38.188Z,16.22
2022-08-27T23:56:06.224Z,16.16
2022-08-27T23:58:33.361Z,16.07
